Huson, MT (59846)

9:19 AM MST on November 24, 2014 (GMT -0700)
Houle Creek | Change Station
CLOSE
Current Station
Personal Weather Station
Location: Frenchtown, MT
Elevation: 3678 ft
Nearby Weather Stations

Elev 3678 ft 47.06 °N, 114.29 °W | Updated 5 seconds ago

Mostly Cloudy
Mostly Cloudy
31.4 °F
Feels Like 31 °F
N
0.0
Wind Variable Wind from North
Gusts 0.0 mph

Today
High -- | Low -- °F
--% Chance of Precip.
Yesterday
High -- | Low -- °F
Precip. -- in
7:53 AM 4:54 PM
Waxing Crescent, 6% visible
Pressure 30.36 in
Visibility 10.0 miles
Clouds Overcast 6000 ft
Windchill 31 °F
Dew Point 31 °F
Humidity 99%
Rainfall 0.00 in
Snow Depth Not available.
UV 0 out of 12
Pollen .10 out of 12
Air Quality Not available.
Flu Activity Not available.
METAR KMSO 241553Z 32007KT 10SM OVC060 01/M03 A3028 RMK AO2 SLP281 T00061033

More Conditions Fewer Conditions

Pressure 30.36 in
Visibility 10.0 miles
Clouds Overcast 6000 ft
Windchill 31 °F
Dew Point 31 °F
Humidity 99%
Rainfall 0.00 in
Snow Depth Not available.
UV 0 out of 12
Pollen .10 out of 12
Air Quality Not available.
Flu Activity Not available.
METAR KMSO 241553Z 32007KT 10SM OVC060 01/M03 A3028 RMK AO2 SLP281 T00061033

More Conditions Fewer Conditions

10-Day Weather Forecast

Almanac

Astronomy

Nov. 24, 2014 Rise Set
Actual Time
Civil Twilight
Nautical Twilight
Astronomical Twilight
Moon
Length of Visible Light
Length of Day
Tomorrow will be .
, % of the Moon is Illuminated

Today's Extremes

State Highs State Lows

Community

WunderPhotos

Upload Photos

1,773,364 photos uploaded!

WunderBlogs® & News

Nearby

Air Quality

  Air Quality AQ Index Pollutant
Not available.

Snow Depth

Station Depth Elevation

Earthquake Activity

City Distance Mag. Time & Date
Minimum magnitude displayed is 2.5.

Coastal Water Temperatures

Place Temperature

Nearby Weather Stations